Terminal Aerodrome Forecast
Issued by NWS

Home | Current Version | Previous Version | Graphics & Text | Print | Product List | Glossary On
Versions: 1 2 3 4 5 6 7 8 9 10 11 12 13 14
000
FTUS42 KMHX 190534
TAFISO
TAF
KISO 190534Z 1906/2006 34005KT P6SM SCT015
     FM190900 33008KT P6SM SCT008 OVC012
     FM191300 33009KT P6SM BKN020
     FM191800 33009G18KT P6SM SCT020
     FM192300 32006KT P6SM SKC
      AMD LTD TO CLD VIS AND WIND=

USA.gov is the U.S. government's official web portal to all federal, state and local government web resources and services.